createdAt,value
2018-02-19T00:01:10.377Z,1.50
2018-02-19T00:03:38.124Z,1.50
2018-02-19T00:06:05.929Z,1.50
2018-02-19T00:08:33.665Z,1.50
2018-02-19T00:11:01.410Z,1.60
2018-02-19T00:13:29.208Z,1.50
2018-02-19T00:15:56.949Z,1.50
2018-02-19T00:18:24.691Z,1.40
2018-02-19T00:20:52.484Z,1.40
2018-02-19T00:23:21.010Z,1.30
2018-02-19T00:25:48.749Z,1.30
2018-02-19T00:28:16.549Z,1.30
2018-02-19T00:30:44.294Z,1.40
2018-02-19T00:33:12.033Z,1.40
2018-02-19T00:35:39.830Z,1.40
2018-02-19T00:38:07.568Z,1.30
2018-02-19T00:40:35.313Z,1.30
2018-02-19T00:43:03.126Z,1.40
2018-02-19T00:45:30.884Z,1.30
2018-02-19T00:47:59.396Z,1.40
2018-02-19T00:50:27.951Z,1.40
2018-02-19T00:52:55.691Z,1.40
2018-02-19T00:55:23.441Z,1.40
2018-02-19T00:57:51.244Z,1.50
2018-02-19T01:00:19.008Z,1.50
2018-02-19T01:02:46.748Z,1.50
2018-02-19T01:05:14.545Z,1.40
2018-02-19T01:07:43.067Z,1.20
2018-02-19T01:10:10.801Z,1.20
2018-02-19T01:12:38.631Z,1.20
2018-02-19T01:15:06.369Z,1.20
2018-02-19T01:17:34.117Z,1.20
2018-02-19T01:20:01.912Z,1.30
2018-02-19T01:22:29.655Z,1.20
2018-02-19T01:24:57.397Z,1.20
2018-02-19T01:27:25.201Z,1.20
2018-02-19T01:29:52.969Z,1.20
2018-02-19T01:32:21.480Z,1.10
2018-02-19T01:34:49.278Z,1.10
2018-02-19T01:37:17.019Z,1.10
2018-02-19T01:39:44.761Z,1.20
2018-02-19T01:42:12.562Z,1.10
2018-02-19T01:44:40.305Z,1.20
2018-02-19T01:47:08.042Z,1.10
2018-02-19T01:49:36.617Z,1.00
2018-02-19T01:52:05.125Z,1.00
2018-02-19T01:54:32.868Z,1.00
2018-02-19T01:57:00.664Z,0.90
2018-02-19T01:59:28.409Z,0.90
2018-02-19T02:01:56.181Z,0.90
2018-02-19T02:04:23.972Z,0.90
2018-02-19T02:06:51.723Z,0.90
2018-02-19T02:09:19.466Z,0.90
2018-02-19T02:11:47.264Z,0.90
2018-02-19T02:14:15.002Z,0.90
2018-02-19T02:16:42.742Z,0.90
2018-02-19T02:19:10.534Z,0.90
2018-02-19T02:21:38.274Z,0.90
2018-02-19T02:24:06.016Z,0.90
2018-02-19T02:26:33.819Z,0.90
2018-02-19T02:29:01.556Z,0.90
2018-02-19T02:31:29.308Z,0.80
2018-02-19T02:33:57.093Z,0.90
2018-02-19T02:36:25.601Z,0.80
2018-02-19T02:38:53.340Z,0.80
2018-02-19T02:41:21.129Z,0.80
2018-02-19T02:43:48.875Z,0.70
2018-02-19T02:46:16.622Z,0.70
2018-02-19T02:48:44.433Z,0.70
2018-02-19T02:51:12.940Z,0.80
2018-02-19T02:53:40.692Z,0.70
2018-02-19T02:56:08.485Z,0.70
2018-02-19T02:58:36.237Z,0.70
2018-02-19T03:01:03.984Z,0.70
2018-02-19T03:03:31.799Z,0.70
2018-02-19T03:05:59.541Z,0.70
2018-02-19T03:08:27.282Z,0.70
2018-02-19T03:10:55.098Z,0.80
2018-02-19T03:13:23.608Z,0.70
2018-02-19T03:15:51.345Z,0.70
2018-02-19T03:18:19.909Z,0.60
2018-02-19T03:20:47.662Z,0.50
2018-02-19T03:23:15.401Z,0.60
2018-02-19T03:25:43.193Z,0.50
2018-02-19T03:28:10.929Z,0.50
2018-02-19T03:30:38.670Z,0.50
2018-02-19T03:33:06.658Z,0.60
2018-02-19T03:35:34.408Z,0.50
2018-02-19T03:38:02.158Z,0.40
2018-02-19T03:40:29.996Z,0.30
2018-02-19T03:42:57.745Z,0.30
2018-02-19T03:45:26.248Z,0.40
2018-02-19T03:47:54.040Z,0.40
2018-02-19T03:50:21.787Z,0.40
2018-02-19T03:52:49.526Z,0.40
2018-02-19T03:55:17.313Z,0.40
2018-02-19T03:57:45.053Z,0.40
2018-02-19T04:00:12.814Z,0.30
2018-02-19T04:02:40.615Z,0.30
2018-02-19T04:05:08.360Z,0.20
2018-02-19T04:07:36.105Z,0.20
2018-02-19T04:10:03.905Z,0.10
2018-02-19T04:12:31.643Z,0.10
2018-02-19T04:14:59.383Z,0.20
2018-02-19T04:17:27.173Z,0.10
2018-02-19T04:19:54.927Z,0.00
2018-02-19T04:22:22.665Z,0.00
2018-02-19T04:24:50.459Z,0.00
2018-02-19T04:27:18.214Z,-0.10
2018-02-19T04:29:45.960Z,-0.10
2018-02-19T04:32:13.763Z,0.00
2018-02-19T04:34:41.507Z,0.00
2018-02-19T04:37:09.264Z,0.00
2018-02-19T04:39:37.065Z,0.00
2018-02-19T04:42:04.809Z,0.00
2018-02-19T04:57:54.377Z,0.00
2018-02-19T05:00:22.119Z,0.00
2018-02-19T05:02:49.860Z,-0.10
2018-02-19T05:05:17.666Z,-0.10
2018-02-19T05:07:46.176Z,-0.20
2018-02-19T05:10:13.916Z,-0.20
2018-02-19T05:12:42.485Z,-0.20
2018-02-19T05:15:10.225Z,-0.20
2018-02-19T05:17:37.972Z,-0.20
2018-02-19T05:20:05.766Z,-0.30
2018-02-19T05:22:33.514Z,-0.40
2018-02-19T05:25:01.265Z,-0.40
2018-02-19T05:27:29.069Z,-0.50
2018-02-19T05:29:57.572Z,-0.80
2018-02-19T05:32:25.313Z,-0.80
2018-02-19T05:34:54.060Z,-0.90
2018-02-19T05:37:21.813Z,-0.90
2018-02-19T05:39:49.566Z,-0.90
2018-02-19T05:42:17.370Z,-0.90
2018-02-19T05:44:45.884Z,-1.00
2018-02-19T05:47:13.634Z,-1.10
2018-02-19T05:49:41.438Z,-1.00
2018-02-19T05:52:09.195Z,-1.10
2018-02-19T05:54:36.944Z,-1.10
2018-02-19T05:57:04.741Z,-1.20
2018-02-19T05:59:32.510Z,-1.20
2018-02-19T06:02:01.066Z,-1.10
2018-02-19T06:04:28.866Z,-1.20
2018-02-19T06:06:57.377Z,-1.20
2018-02-19T06:09:25.113Z,-1.20
2018-02-19T06:11:53.679Z,-1.10
2018-02-19T06:14:21.416Z,-1.10
2018-02-19T06:16:49.161Z,-1.00
2018-02-19T06:19:16.961Z,-1.00
2018-02-19T06:21:44.712Z,-0.90
2018-02-19T06:24:12.460Z,-0.80
2018-02-19T06:26:40.262Z,-0.80
2018-02-19T06:29:08.776Z,-0.70
2018-02-19T06:31:36.516Z,-0.70
2018-02-19T06:34:04.331Z,-0.70
2018-02-19T06:36:32.076Z,-0.50
2018-02-19T06:38:59.832Z,-0.40
2018-02-19T06:41:27.630Z,-0.30
2018-02-19T06:43:55.374Z,-0.20
2018-02-19T06:46:23.118Z,-0.30
2018-02-19T06:48:50.921Z,-0.20
2018-02-19T06:51:19.462Z,-0.10
2018-02-19T06:53:47.211Z,-0.10
2018-02-19T06:56:15.012Z,0.00
2018-02-19T06:58:42.796Z,0.10
2018-02-19T07:01:11.305Z,0.20
2018-02-19T07:03:39.114Z,0.20
2018-02-19T07:06:06.858Z,0.30
2018-02-19T07:08:34.605Z,0.30
2018-02-19T07:11:02.464Z,0.40
2018-02-19T07:13:30.211Z,0.60
2018-02-19T07:15:57.948Z,0.70
2018-02-19T07:18:26.511Z,1.80
2018-02-19T07:20:54.262Z,1.80
2018-02-19T07:23:22.022Z,3.10
2018-02-19T07:25:49.813Z,4.30
2018-02-19T07:28:18.321Z,6.50
2018-02-19T07:30:46.061Z,6.40
2018-02-19T07:33:14.625Z,7.90
2018-02-19T07:35:42.373Z,7.90
2018-02-19T07:38:10.108Z,8.50
2018-02-19T07:40:37.907Z,9.70
2018-02-19T07:43:05.661Z,10.10
2018-02-19T07:45:33.405Z,11.00
2018-02-19T07:48:01.223Z,11.20
2018-02-19T07:50:28.992Z,11.10
2018-02-19T07:52:56.861Z,11.20
2018-02-19T07:55:24.673Z,11.30
2018-02-19T07:57:52.426Z,12.30
2018-02-19T08:00:20.192Z,12.10
2018-02-19T08:02:48.783Z,11.90
2018-02-19T08:05:16.533Z,11.90
2018-02-19T08:07:44.293Z,11.80
2018-02-19T08:10:12.101Z,12.40
2018-02-19T08:12:39.860Z,13.30
2018-02-19T08:15:08.372Z,13.50
2018-02-19T08:17:36.187Z,13.40
2018-02-19T08:20:04.751Z,15.00
2018-02-19T08:22:32.508Z,15.00
2018-02-19T08:25:00.362Z,16.10
2018-02-19T08:27:28.110Z,16.90
2018-02-19T08:29:55.862Z,17.20
2018-02-19T08:32:23.677Z,17.70
2018-02-19T08:34:52.185Z,15.10
2018-02-19T08:37:19.933Z,15.10
2018-02-19T08:39:48.496Z,13.30
2018-02-19T08:42:17.012Z,12.90
2018-02-19T08:44:44.755Z,12.80
2018-02-19T08:47:13.365Z,11.70
2018-02-19T08:49:41.114Z,11.70
2018-02-19T08:52:08.862Z,11.70
2018-02-19T08:54:36.668Z,11.40
2018-02-19T08:57:04.434Z,11.70
2018-02-19T08:59:32.197Z,10.90
2018-02-19T09:02:00.065Z,9.70
2018-02-19T09:04:27.869Z,8.90
2018-02-19T09:06:56.371Z,9.60
2018-02-19T09:09:24.164Z,9.50
2018-02-19T09:11:51.933Z,10.40
2018-02-19T09:14:19.694Z,11.00
2018-02-19T09:16:47.512Z,10.70
2018-02-19T09:19:15.266Z,10.80
2018-02-19T09:21:43.022Z,11.30
2018-02-19T09:24:11.604Z,10.20
2018-02-19T09:26:40.116Z,8.40
2018-02-19T09:29:07.874Z,8.30
2018-02-19T09:31:35.682Z,7.30
2018-02-19T09:34:03.469Z,6.70
2018-02-19T09:36:31.980Z,5.20
2018-02-19T09:38:59.772Z,5.20
2018-02-19T09:41:27.521Z,4.90
2018-02-19T09:43:55.271Z,4.90
2018-02-19T09:46:23.067Z,4.50
2018-02-19T09:48:50.821Z,4.30
2018-02-19T09:51:18.571Z,4.30
2018-02-19T09:53:46.376Z,4.30
2018-02-19T09:56:14.892Z,4.30
2018-02-19T09:58:42.637Z,4.30
2018-02-19T10:01:10.433Z,3.90
2018-02-19T10:03:38.184Z,3.90
2018-02-19T10:06:05.956Z,4.10
2018-02-19T10:08:33.766Z,4.20
2018-02-19T10:11:02.273Z,3.90
2018-02-19T10:13:30.031Z,3.90
2018-02-19T10:15:57.827Z,3.80
2018-02-19T10:18:25.566Z,3.80
2018-02-19T10:20:53.313Z,3.70
2018-02-19T10:23:21.125Z,3.70
2018-02-19T10:25:48.869Z,3.80
2018-02-19T10:28:17.388Z,3.80
2018-02-19T10:30:45.945Z,4.00
2018-02-19T10:33:13.682Z,4.00
2018-02-19T10:35:41.421Z,3.90
2018-02-19T10:38:09.224Z,3.90
2018-02-19T10:40:36.974Z,3.60
2018-02-19T10:43:04.756Z,3.60
2018-02-19T10:45:32.552Z,3.60
2018-02-19T10:48:00.297Z,3.70
2018-02-19T10:50:28.810Z,3.70
2018-02-19T10:52:56.622Z,3.70
2018-02-19T10:55:24.369Z,3.60
2018-02-19T10:57:52.114Z,3.70
2018-02-19T11:00:25.559Z,3.70
2018-02-19T11:02:54.061Z,3.90
2018-02-19T11:05:21.802Z,3.90
2018-02-19T11:07:50.371Z,3.90
2018-02-19T11:10:18.126Z,3.90
2018-02-19T11:12:45.880Z,4.00
2018-02-19T11:15:13.683Z,4.00
2018-02-19T11:17:42.188Z,3.80
2018-02-19T11:20:09.963Z,3.80
2018-02-19T11:22:37.764Z,3.80
2018-02-19T11:25:05.543Z,3.80
2018-02-19T11:27:34.052Z,3.60
2018-02-19T11:30:01.844Z,3.50
2018-02-19T11:32:29.598Z,3.40
2018-02-19T11:34:57.352Z,3.60
2018-02-19T11:37:25.339Z,3.90
2018-02-19T11:39:53.082Z,4.00
2018-02-19T11:42:20.829Z,4.10
2018-02-19T11:44:49.417Z,3.80
2018-02-19T11:47:17.160Z,3.80
2018-02-19T11:49:44.919Z,3.80
2018-02-19T11:52:12.727Z,3.80
2018-02-19T11:54:40.497Z,3.90
2018-02-19T11:57:08.256Z,4.10
2018-02-19T11:59:36.813Z,3.70
2018-02-19T12:02:04.574Z,3.70
2018-02-19T12:04:33.080Z,3.80
2018-02-19T12:07:00.872Z,3.80
2018-02-19T12:09:28.645Z,3.80
2018-02-19T12:11:56.388Z,3.90
2018-02-19T12:14:24.956Z,4.30
2018-02-19T12:16:52.701Z,4.30
2018-02-19T12:19:20.442Z,4.40
2018-02-19T12:21:48.231Z,4.50
2018-02-19T12:24:15.979Z,4.30
2018-02-19T12:26:43.735Z,4.20
2018-02-19T12:29:11.541Z,4.30
2018-02-19T12:31:40.064Z,4.30
2018-02-19T12:34:07.829Z,4.30
2018-02-19T12:36:35.619Z,4.30
2018-02-19T12:39:03.413Z,4.20
2018-02-19T12:41:31.925Z,4.20
2018-02-19T12:43:59.752Z,4.10
2018-02-19T12:46:27.508Z,4.20
2018-02-19T12:48:56.030Z,4.10
2018-02-19T12:51:23.845Z,4.10
2018-02-19T12:53:52.361Z,4.20
2018-02-19T12:56:20.105Z,4.20
2018-02-19T12:58:47.919Z,4.30
2018-02-19T13:01:15.665Z,4.30
2018-02-19T13:03:43.409Z,4.20
2018-02-19T13:06:11.226Z,4.30
2018-02-19T13:08:38.980Z,4.40
2018-02-19T13:11:06.745Z,4.50
2018-02-19T13:13:34.566Z,4.50
2018-02-19T13:16:02.311Z,4.60
2018-02-19T13:18:30.058Z,4.60
2018-02-19T13:20:57.861Z,4.70
2018-02-19T13:23:25.608Z,4.80
2018-02-19T13:25:53.379Z,4.80
2018-02-19T13:28:21.186Z,4.80
2018-02-19T13:30:48.941Z,4.60
2018-02-19T13:33:16.693Z,4.50
2018-02-19T13:35:44.501Z,4.50
2018-02-19T13:38:12.243Z,4.50
2018-02-19T13:40:40.749Z,4.40
2018-02-19T13:43:08.551Z,4.40
2018-02-19T13:45:37.064Z,4.60
2018-02-19T13:48:05.581Z,4.50
2018-02-19T13:50:33.389Z,4.50
2018-02-19T13:53:01.139Z,4.40
2018-02-19T13:55:28.886Z,4.40
2018-02-19T13:57:56.682Z,4.50
2018-02-19T14:00:25.206Z,4.40
2018-02-19T14:02:52.970Z,4.40
2018-02-19T14:05:20.764Z,4.50
2018-02-19T14:07:48.506Z,4.50
2018-02-19T14:10:16.258Z,4.60
2018-02-19T14:12:44.053Z,4.50
2018-02-19T14:15:11.807Z,4.60
2018-02-19T14:17:39.566Z,4.60
2018-02-19T14:20:07.368Z,4.60
2018-02-19T14:22:35.989Z,4.40
2018-02-19T14:25:03.752Z,4.40
2018-02-19T14:27:31.548Z,4.30
2018-02-19T14:29:59.284Z,4.30
2018-02-19T14:32:27.028Z,4.20
2018-02-19T14:34:54.840Z,4.10
2018-02-19T14:37:22.576Z,4.10
2018-02-19T14:39:50.325Z,4.00
2018-02-19T14:42:18.134Z,4.00
2018-02-19T14:44:46.661Z,3.90
2018-02-19T14:47:14.398Z,3.90
2018-02-19T14:49:42.184Z,3.80
2018-02-19T14:52:09.940Z,3.70
2018-02-19T14:54:37.696Z,3.70
2018-02-19T14:57:05.492Z,3.60
2018-02-19T14:59:33.237Z,3.60
2018-02-19T15:02:00.994Z,3.50
2018-02-19T15:04:28.798Z,3.50
2018-02-19T15:06:56.537Z,3.50
2018-02-19T15:09:25.085Z,3.40
2018-02-19T15:11:52.888Z,3.40
2018-02-19T15:14:20.635Z,3.40
2018-02-19T15:16:48.382Z,3.40
2018-02-19T15:19:16.185Z,3.30
2018-02-19T15:21:43.957Z,3.30
2018-02-19T15:24:11.708Z,3.30
2018-02-19T15:26:39.520Z,3.30
2018-02-19T15:29:07.268Z,3.30
2018-02-19T15:31:35.018Z,3.30
2018-02-19T15:34:03.594Z,3.20
2018-02-19T15:36:31.348Z,3.10
2018-02-19T15:38:59.125Z,3.10
2018-02-19T15:41:27.701Z,3.00
2018-02-19T15:43:56.207Z,3.00
2018-02-19T15:46:23.958Z,3.00
2018-02-19T15:48:51.797Z,3.00
2018-02-19T15:51:19.553Z,2.90
2018-02-19T15:53:47.295Z,2.90
2018-02-19T15:56:15.092Z,2.90
2018-02-19T15:58:43.612Z,2.90
2018-02-19T16:01:11.351Z,2.90
2018-02-19T16:03:39.150Z,2.80
2018-02-19T16:06:06.903Z,2.70
2018-02-19T16:08:34.662Z,2.70
2018-02-19T16:11:02.461Z,2.70
2018-02-19T16:13:30.217Z,2.60
2018-02-19T16:15:57.985Z,2.50
2018-02-19T16:18:25.810Z,2.40
2018-02-19T16:20:53.556Z,2.30
2018-02-19T16:23:21.304Z,2.30
2018-02-19T16:25:49.100Z,2.30
2018-02-19T16:28:16.840Z,2.20
2018-02-19T16:30:44.577Z,2.10
2018-02-19T16:33:13.176Z,2.10
2018-02-19T16:35:40.921Z,2.10
2018-02-19T16:38:09.448Z,2.00
2018-02-19T16:40:37.247Z,2.00
2018-02-19T16:43:04.984Z,2.00
2018-02-19T16:45:33.690Z,2.00
2018-02-19T16:48:01.501Z,2.00
2018-02-19T16:50:29.253Z,2.00
2018-02-19T16:52:57.005Z,1.90
2018-02-19T16:55:24.817Z,1.80
2018-02-19T16:57:52.557Z,1.70
2018-02-19T17:00:20.314Z,1.60
2018-02-19T17:02:48.137Z,1.60
2018-02-19T17:05:16.649Z,1.40
2018-02-19T17:07:44.389Z,1.40
2018-02-19T17:10:12.233Z,1.40
2018-02-19T17:12:39.993Z,1.40
2018-02-19T17:15:07.744Z,1.40
2018-02-19T17:17:35.546Z,1.40
2018-02-19T17:20:03.313Z,1.40
2018-02-19T17:22:31.066Z,1.40
2018-02-19T17:24:58.861Z,1.30
2018-02-19T17:27:26.597Z,1.30
2018-02-19T17:29:54.337Z,1.40
2018-02-19T17:32:22.901Z,1.30
2018-02-19T17:34:53.977Z,1.30
2018-02-19T17:37:21.731Z,1.30
2018-02-19T17:39:49.525Z,1.20
2018-02-19T17:42:17.280Z,1.20
2018-02-19T17:44:45.034Z,1.10
2018-02-19T17:47:12.870Z,1.10
2018-02-19T17:49:41.376Z,1.00
2018-02-19T17:52:09.113Z,0.90
2018-02-19T17:54:37.670Z,0.90
2018-02-19T17:57:05.416Z,0.90
2018-02-19T17:59:33.167Z,0.80
2018-02-19T18:02:00.973Z,0.70
2018-02-19T18:04:29.484Z,0.60
2018-02-19T18:06:57.240Z,0.60
2018-02-19T18:09:25.038Z,0.60
2018-02-19T18:11:52.798Z,0.60
2018-02-19T18:14:20.547Z,0.70
2018-02-19T18:16:48.336Z,0.70
2018-02-19T18:19:16.074Z,0.60
2018-02-19T18:21:43.820Z,0.50
2018-02-19T18:24:11.621Z,0.50
2018-02-19T18:26:39.372Z,0.50
2018-02-19T18:29:07.132Z,0.50
2018-02-19T18:31:34.934Z,0.50
2018-02-19T18:34:03.441Z,0.40
2018-02-19T18:36:31.181Z,0.40
2018-02-19T18:38:58.977Z,0.30
2018-02-19T18:41:26.724Z,0.30
2018-02-19T18:43:54.475Z,0.30
2018-02-19T18:46:22.275Z,0.30
2018-02-19T18:48:50.860Z,0.30
2018-02-19T18:51:18.610Z,0.20
2018-02-19T18:53:46.413Z,0.20
2018-02-19T18:56:14.493Z,0.20
2018-02-19T18:58:42.299Z,0.20
2018-02-19T19:01:10.150Z,0.10
2018-02-19T19:03:37.895Z,0.10
2018-02-19T19:06:05.636Z,0.00
2018-02-19T19:08:46.074Z,0.00
2018-02-19T19:11:13.830Z,0.00
2018-02-19T19:13:41.696Z,-0.10
2018-02-19T19:16:09.494Z,-0.10
2018-02-19T19:18:38.038Z,-0.10
2018-02-19T19:21:05.783Z,-0.10
2018-02-19T19:23:33.590Z,-0.10
2018-02-19T19:26:02.109Z,-0.10
2018-02-19T19:28:29.858Z,-0.20
2018-02-19T19:30:57.679Z,-0.10
2018-02-19T19:33:26.214Z,-0.20
2018-02-19T19:35:53.977Z,-0.20
2018-02-19T19:38:21.865Z,-0.20
2018-02-19T19:40:49.623Z,-0.20
2018-02-19T19:43:17.413Z,-0.20
2018-02-19T19:45:45.222Z,-0.30
2018-02-19T19:48:12.984Z,-0.30
2018-02-19T19:50:40.850Z,-0.30
2018-02-19T19:53:08.693Z,-0.40
2018-02-19T19:55:37.241Z,-0.40
2018-02-19T19:58:05.009Z,-0.40
2018-02-19T20:00:33.598Z,-0.40
2018-02-19T20:03:02.135Z,-0.50
2018-02-19T20:05:29.887Z,-0.50
2018-02-19T20:07:57.708Z,-0.50
2018-02-19T20:10:26.245Z,-0.60
2018-02-19T20:12:54.002Z,-0.60
2018-02-19T20:15:21.807Z,-0.70
2018-02-19T20:17:50.333Z,-0.70
2018-02-19T20:20:18.080Z,-0.70
2018-02-19T20:22:48.029Z,-0.80
2018-02-19T20:25:16.149Z,-0.80
2018-02-19T20:27:43.897Z,-0.80
2018-02-19T20:30:12.470Z,-0.80
2018-02-19T20:32:41.006Z,-0.80
2018-02-19T20:35:08.773Z,-0.80
2018-02-19T20:37:36.593Z,-0.80
2018-02-19T20:40:04.473Z,-0.80
2018-02-19T20:42:32.228Z,-0.80
2018-02-19T20:45:00.038Z,-0.80
2018-02-19T20:47:27.798Z,-0.80
2018-02-19T20:49:55.566Z,-0.80
2018-02-19T20:52:23.381Z,-0.80
2018-02-19T20:54:51.139Z,-0.80
2018-02-19T20:57:18.881Z,-0.80
2018-02-19T20:59:47.457Z,-0.90
2018-02-19T21:02:15.997Z,-0.90
2018-02-19T21:04:43.751Z,-0.90
2018-02-19T21:07:11.568Z,-0.90
2018-02-19T21:09:40.090Z,-0.90
2018-02-19T21:12:07.937Z,-0.90
2018-02-19T21:14:35.896Z,-0.90
2018-02-19T21:17:03.714Z,-0.90
2018-02-19T21:19:31.490Z,-0.90
2018-02-19T21:21:59.309Z,-0.90
2018-02-19T21:24:27.091Z,-0.90
2018-02-19T21:26:54.842Z,-0.90
2018-02-19T21:29:22.650Z,-1.00
2018-02-19T21:31:51.169Z,-1.00
2018-02-19T21:34:18.998Z,-1.00
2018-02-19T21:36:46.804Z,-1.10
2018-02-19T21:39:14.558Z,-1.10
2018-02-19T21:41:42.304Z,-1.10
2018-02-19T21:44:10.383Z,-1.10
2018-02-19T21:46:38.281Z,-1.20
2018-02-19T21:49:06.030Z,-1.20
2018-02-19T21:51:33.860Z,-1.20
2018-02-19T21:54:01.616Z,-1.20
2018-02-19T21:56:29.373Z,-1.30
2018-02-19T21:58:57.185Z,-1.30
2018-02-19T22:01:24.932Z,-1.40
2018-02-19T22:03:52.701Z,-1.40
2018-02-19T22:06:20.725Z,-1.40
2018-02-19T22:08:48.516Z,-1.40
2018-02-19T22:11:16.283Z,-1.40
2018-02-19T22:13:44.089Z,-1.40
2018-02-19T22:16:12.626Z,-1.40
2018-02-19T22:18:41.137Z,-1.40
2018-02-19T22:21:08.964Z,-1.40
2018-02-19T22:23:36.722Z,-1.40
2018-02-19T22:26:04.469Z,-1.40
2018-02-19T22:28:32.275Z,-1.40
2018-02-19T22:31:00.035Z,-1.50
2018-02-19T22:33:27.811Z,-1.50
2018-02-19T22:35:56.413Z,-1.50
2018-02-19T22:38:24.952Z,-1.50
2018-02-19T22:40:52.728Z,-1.60
2018-02-19T22:43:20.558Z,-1.60
2018-02-19T22:45:48.319Z,-1.60
2018-02-19T22:48:16.078Z,-1.60
2018-02-19T22:50:43.887Z,-1.60
2018-02-19T22:53:11.654Z,-1.60
2018-02-19T22:55:40.188Z,-1.60
2018-02-19T22:58:07.984Z,-1.60
2018-02-19T23:00:35.741Z,-1.60
2018-02-19T23:03:03.487Z,-1.70
2018-02-19T23:05:31.302Z,-1.70
2018-02-19T23:07:59.048Z,-1.70
2018-02-19T23:10:27.572Z,-1.70
2018-02-19T23:12:55.402Z,-1.70
2018-02-19T23:15:23.922Z,-1.70
2018-02-19T23:17:51.682Z,-1.80
2018-02-19T23:20:19.874Z,-1.70
2018-02-19T23:22:47.674Z,-1.80
2018-02-19T23:25:16.198Z,-1.70
2018-02-19T23:27:44.015Z,-1.80
2018-02-19T23:30:12.609Z,-1.80
2018-02-19T23:32:40.362Z,-1.80
2018-02-19T23:35:08.938Z,-1.80
2018-02-19T23:37:37.458Z,-1.80
2018-02-19T23:40:05.201Z,-1.80
2018-02-19T23:42:33.011Z,-1.90
2018-02-19T23:45:00.778Z,-1.90
2018-02-19T23:47:28.533Z,-1.90
2018-02-19T23:49:56.352Z,-1.90
2018-02-19T23:52:24.105Z,-1.90
2018-02-19T23:54:51.891Z,-1.90
2018-02-19T23:57:19.690Z,-2.00
2018-02-19T23:59:47.461Z,-2.00
